createdAt,value
2022-07-26T04:46:21.500Z,72.97
2022-07-26T04:47:22.403Z,72.87
2022-07-26T04:48:22.400Z,72.77
2022-07-26T04:49:22.385Z,72.67
2022-07-26T04:50:22.356Z,72.64
2022-07-26T04:51:29.489Z,72.53
2022-07-26T04:52:22.336Z,72.53
2022-07-26T04:53:22.355Z,72.67
2022-07-26T04:54:22.308Z,72.67
2022-07-26T04:55:22.311Z,72.77
2022-07-26T04:56:22.297Z,72.77
2022-07-26T04:57:22.288Z,72.97
2022-07-26T04:58:22.281Z,72.97
2022-07-26T04:59:22.283Z,72.97
2022-07-26T05:00:23.636Z,72.97
2022-07-26T05:01:22.256Z,72.97
2022-07-26T05:02:22.338Z,73.07
2022-07-26T05:03:22.215Z,72.97
2022-07-26T05:04:22.209Z,73.07
2022-07-26T05:05:22.321Z,72.94
2022-07-26T05:06:22.175Z,72.84
2022-07-26T05:07:22.173Z,72.94
2022-07-26T05:08:23.085Z,73.04
2022-07-26T05:09:22.154Z,72.94
2022-07-26T05:10:22.216Z,72.94
2022-07-26T05:11:22.130Z,72.94
2022-07-26T05:12:22.179Z,73.04
2022-07-26T05:13:25.241Z,73.14
2022-07-26T05:15:17.234Z,73.14
2022-07-26T05:16:18.238Z,73.14
2022-07-26T05:17:18.251Z,73.04
2022-07-26T05:18:18.178Z,73.04
2022-07-26T05:19:18.176Z,73.04
2022-07-26T05:20:18.152Z,73.04
2022-07-26T05:21:18.136Z,72.90
2022-07-26T05:22:18.130Z,73.04
2022-07-26T05:23:18.148Z,73.00
2022-07-26T05:24:18.115Z,73.00
2022-07-26T05:25:18.107Z,72.90
2022-07-26T05:26:18.117Z,72.80
2022-07-26T05:27:18.080Z,72.71
2022-07-26T05:28:18.070Z,72.60
2022-07-26T05:29:18.069Z,72.60
2022-07-26T05:30:18.086Z,72.71
2022-07-26T05:31:18.065Z,72.60
2022-07-26T05:32:18.025Z,72.56
2022-07-26T05:33:18.013Z,72.47
2022-07-26T05:34:18.011Z,72.47
2022-07-26T05:35:17.993Z,72.56
2022-07-26T05:36:17.991Z,72.47
2022-07-26T05:37:17.955Z,72.27
2022-07-26T05:38:17.968Z,72.27
2022-07-26T05:39:18.585Z,72.56
2022-07-26T05:40:17.966Z,72.56
2022-07-26T05:41:17.929Z,72.56
2022-07-26T05:42:17.914Z,72.80
2022-07-26T05:43:17.903Z,72.56
2022-07-26T05:44:17.892Z,72.56
2022-07-26T05:45:17.886Z,72.56
2022-07-26T05:46:17.929Z,72.47
2022-07-26T05:47:17.963Z,72.71
2022-07-26T05:48:17.917Z,72.90
2022-07-26T05:49:17.875Z,73.21
2022-07-26T05:50:17.821Z,73.21
2022-07-26T05:51:18.042Z,73.21
2022-07-26T05:52:17.810Z,72.87
2022-07-26T05:53:17.792Z,72.77
2022-07-26T05:54:17.771Z,72.67
2022-07-26T05:55:17.772Z,72.56
2022-07-26T05:56:17.747Z,72.47
2022-07-26T05:57:17.749Z,72.24
2022-07-26T05:58:17.737Z,72.13
2022-07-26T05:59:17.746Z,72.47
2022-07-26T06:00:17.746Z,72.47
2022-07-26T06:01:17.693Z,72.33
2022-07-26T06:02:17.785Z,72.43
2022-07-26T06:03:17.681Z,72.33
2022-07-26T06:04:17.903Z,72.24
2022-07-26T06:05:17.671Z,72.33
2022-07-26T06:06:17.711Z,72.13
2022-07-26T06:07:17.626Z,72.13
2022-07-26T06:08:17.678Z,72.43
2022-07-26T06:09:17.600Z,72.56
2022-07-26T06:10:17.620Z,72.56
2022-07-26T06:11:17.603Z,72.43
2022-07-26T06:12:17.600Z,72.33
2022-07-26T06:13:17.584Z,72.03
2022-07-26T06:14:17.569Z,72.24
2022-07-26T06:15:17.583Z,72.03
2022-07-26T06:16:17.540Z,72.33
2022-07-26T06:17:17.575Z,72.33
2022-07-26T06:18:17.520Z,72.24
2022-07-26T06:19:17.514Z,72.00
2022-07-26T06:20:18.326Z,72.09
2022-07-26T06:21:17.477Z,72.09
2022-07-26T06:22:17.691Z,72.33
2022-07-26T06:23:17.455Z,72.63
2022-07-26T06:24:17.481Z,72.63
2022-07-26T06:25:17.467Z,72.83
2022-07-26T06:26:17.432Z,72.94
2022-07-26T06:27:17.416Z,72.83
2022-07-26T06:28:17.436Z,72.50
2022-07-26T06:29:17.415Z,72.30
2022-07-26T06:30:18.233Z,72.40
2022-07-26T06:31:17.451Z,72.60
2022-07-26T06:32:17.476Z,72.80
2022-07-26T06:33:17.373Z,72.80
2022-07-26T06:34:17.343Z,72.80
2022-07-26T06:35:23.829Z,72.47
2022-07-26T06:36:17.317Z,72.16
2022-07-26T06:37:17.307Z,71.96
2022-07-26T06:38:17.331Z,71.77
2022-07-26T06:39:17.318Z,71.96
2022-07-26T06:40:17.279Z,71.86
2022-07-26T06:41:17.286Z,71.73
2022-07-26T06:42:17.262Z,71.73
2022-07-26T06:43:17.281Z,71.63
2022-07-26T06:44:17.243Z,71.63
2022-07-26T06:45:17.250Z,71.63
2022-07-26T06:46:17.268Z,71.73
2022-07-26T06:47:17.206Z,71.93
2022-07-26T06:48:17.233Z,72.13
2022-07-26T06:49:21.854Z,73.16
2022-07-26T06:50:17.208Z,73.57
2022-07-26T06:51:17.152Z,73.47
2022-07-26T06:52:17.148Z,74.27
2022-07-26T06:53:17.131Z,74.67
2022-07-26T06:54:17.128Z,74.10
2022-07-26T06:55:17.118Z,74.80
2022-07-26T06:56:17.109Z,74.30
2022-07-26T06:57:17.091Z,74.60
2022-07-26T06:58:17.093Z,74.40
2022-07-26T06:59:17.097Z,74.10
2022-07-26T07:00:17.068Z,74.30
2022-07-26T07:01:55.485Z,74.51
2022-07-26T07:02:17.115Z,74.51
2022-07-26T07:03:17.044Z,74.40
2022-07-26T07:04:17.212Z,74.20
2022-07-26T07:05:17.070Z,74.01
2022-07-26T07:06:17.001Z,73.77
2022-07-26T07:07:17.025Z,73.67
2022-07-26T07:08:16.981Z,73.47
2022-07-26T07:09:16.977Z,73.36
2022-07-26T07:10:16.950Z,73.80
2022-07-26T07:11:16.979Z,74.01
2022-07-26T07:12:16.985Z,74.01
2022-07-26T07:13:16.930Z,74.10
2022-07-26T07:14:16.923Z,74.20
2022-07-26T07:15:16.909Z,74.20
2022-07-26T07:16:16.978Z,73.80
2022-07-26T07:17:20.163Z,73.67
2022-07-26T07:18:16.879Z,73.47
2022-07-26T07:19:16.896Z,73.27
2022-07-26T07:20:16.845Z,72.83
2022-07-26T07:21:16.823Z,72.73
2022-07-26T07:22:16.838Z,72.53
2022-07-26T07:23:16.837Z,72.33
2022-07-26T07:24:16.806Z,72.33
2022-07-26T07:25:16.792Z,72.30
2022-07-26T07:26:16.766Z,71.89
2022-07-26T07:27:16.778Z,71.89
2022-07-26T07:28:16.777Z,72.19
2022-07-26T07:29:16.738Z,72.30
2022-07-26T07:30:16.744Z,72.30
2022-07-26T07:31:16.783Z,72.19
2022-07-26T07:32:18.725Z,72.19
2022-07-26T07:33:22.505Z,72.39
2022-07-26T07:34:16.686Z,72.30
2022-07-26T07:35:16.665Z,72.30
2022-07-26T07:36:16.659Z,72.50
2022-07-26T07:37:16.708Z,72.69
2022-07-26T07:38:16.652Z,72.39
2022-07-26T07:39:17.550Z,72.30
2022-07-26T07:40:16.624Z,72.00
2022-07-26T07:41:16.620Z,72.60
2022-07-26T07:42:16.616Z,72.69
2022-07-26T07:43:16.609Z,73.03
2022-07-26T07:44:16.575Z,73.43
2022-07-26T07:45:16.573Z,73.53
2022-07-26T07:46:16.592Z,73.19
2022-07-26T07:47:16.550Z,72.69
2022-07-26T07:48:33.753Z,72.26
2022-07-26T07:49:16.558Z,71.86
2022-07-26T07:50:16.540Z,71.56
2022-07-26T07:51:16.507Z,71.66
2022-07-26T07:52:16.514Z,71.76
2022-07-26T07:53:16.504Z,71.23
2022-07-26T07:54:16.465Z,71.23
2022-07-26T07:55:40.446Z,70.92
2022-07-26T07:56:16.469Z,70.92
2022-07-26T07:57:16.484Z,71.12
2022-07-26T07:58:17.238Z,71.66
2022-07-26T07:59:16.456Z,71.56
2022-07-26T08:00:16.403Z,71.42
2022-07-26T08:01:16.458Z,71.33
2022-07-26T08:02:16.382Z,71.03
2022-07-26T08:03:17.968Z,71.03
2022-07-26T08:04:16.454Z,70.59
2022-07-26T08:05:16.359Z,70.29
2022-07-26T08:06:16.348Z,69.89
2022-07-26T08:07:16.308Z,70.09
2022-07-26T08:08:16.319Z,69.69
2022-07-26T08:09:16.320Z,70.29
2022-07-26T08:10:16.358Z,69.99
2022-07-26T08:11:16.279Z,69.36
2022-07-26T08:12:16.258Z,68.93
2022-07-26T08:13:16.271Z,68.52
2022-07-26T08:14:16.276Z,68.10
2022-07-26T08:15:16.300Z,67.36
2022-07-26T08:16:16.329Z,67.07
2022-07-26T08:17:16.210Z,67.99
2022-07-26T08:18:16.196Z,68.10
2022-07-26T08:19:16.642Z,67.90
2022-07-26T08:20:16.246Z,67.57
2022-07-26T08:21:16.205Z,67.46
2022-07-26T08:22:16.165Z,67.60
2022-07-26T08:23:16.152Z,67.69
2022-07-26T08:24:16.174Z,67.46
2022-07-26T08:25:16.110Z,67.16
2022-07-26T08:26:16.104Z,66.63
2022-07-26T08:27:16.116Z,66.24
2022-07-26T08:28:37.424Z,66.33
2022-07-26T08:29:16.560Z,66.86
2022-07-26T08:30:16.066Z,67.16
2022-07-26T08:31:16.211Z,67.80
2022-07-26T08:32:16.049Z,67.16
2022-07-26T08:33:16.064Z,66.73
2022-07-26T08:34:16.029Z,66.43
2022-07-26T08:35:17.657Z,65.61
2022-07-26T08:36:15.996Z,65.01
2022-07-26T08:37:17.860Z,65.70
2022-07-26T08:38:15.978Z,65.08
2022-07-26T08:39:15.999Z,64.64
2022-07-26T08:40:15.947Z,64.04
2022-07-26T08:41:15.935Z,63.62
2022-07-26T08:42:15.936Z,63.02
2022-07-26T08:43:15.938Z,63.12
2022-07-26T08:44:15.925Z,62.62
2022-07-26T08:45:15.904Z,62.52
2022-07-26T08:46:15.984Z,62.40
2022-07-26T08:47:15.871Z,61.90
2022-07-26T08:48:17.610Z,61.90
2022-07-26T08:49:16.056Z,61.20
2022-07-26T08:50:16.066Z,61.00
2022-07-26T08:51:15.848Z,61.30
2022-07-26T08:52:15.847Z,61.33
2022-07-26T08:53:15.818Z,61.33
2022-07-26T08:54:15.809Z,61.50
2022-07-26T08:55:22.315Z,61.40
2022-07-26T08:56:15.781Z,62.23
2022-07-26T08:57:15.774Z,61.90
2022-07-26T08:58:15.775Z,61.69
2022-07-26T08:59:20.069Z,61.17
2022-07-26T09:00:15.834Z,60.94
2022-07-26T09:01:15.810Z,60.31
2022-07-26T09:02:15.710Z,59.49
2022-07-26T09:03:15.693Z,58.50
2022-07-26T09:04:30.012Z,59.03
2022-07-26T09:05:15.714Z,58.92
2022-07-26T09:06:15.666Z,59.09
2022-07-26T09:07:15.683Z,58.90
2022-07-26T09:08:15.648Z,59.45
2022-07-26T09:09:15.640Z,60.47
2022-07-26T09:10:15.719Z,61.20
2022-07-26T09:11:15.624Z,60.93
2022-07-26T09:12:15.598Z,61.93
2022-07-26T09:13:15.588Z,62.35
2022-07-26T09:14:15.594Z,62.23
2022-07-26T09:15:22.129Z,62.02
2022-07-26T09:16:15.586Z,62.32
2022-07-26T09:17:15.586Z,62.32
2022-07-26T09:18:15.543Z,62.52
2022-07-26T09:19:15.534Z,62.52
2022-07-26T09:20:15.619Z,62.75
2022-07-26T09:21:16.425Z,62.85
2022-07-26T09:22:15.526Z,63.05
2022-07-26T09:23:15.480Z,62.75
2022-07-26T09:24:15.472Z,62.52
2022-07-26T09:25:15.489Z,63.25
2022-07-26T09:26:15.447Z,63.25
2022-07-26T09:27:15.471Z,63.25
2022-07-26T09:28:15.446Z,63.12
2022-07-26T09:29:15.413Z,63.02
2022-07-26T09:30:15.462Z,62.69
2022-07-26T09:31:15.458Z,62.49
2022-07-26T09:32:15.435Z,62.40
2022-07-26T09:33:15.394Z,62.69
2022-07-26T09:34:15.379Z,63.35
2022-07-26T09:35:45.254Z,63.32
2022-07-26T09:36:15.359Z,62.99
2022-07-26T09:37:15.329Z,61.04
2022-07-26T09:38:15.331Z,59.12
2022-07-26T09:39:15.430Z,58.92
2022-07-26T09:40:15.369Z,59.65
2022-07-26T09:41:15.289Z,59.45
2022-07-26T09:42:28.676Z,59.55
2022-07-26T09:43:15.748Z,59.42
2022-07-26T09:44:15.262Z,59.45
2022-07-26T09:45:15.242Z,59.12
2022-07-26T09:46:15.314Z,59.35
2022-07-26T09:47:15.246Z,58.73
2022-07-26T09:48:15.226Z,57.08
2022-07-26T09:49:15.284Z,55.49
2022-07-26T09:50:15.457Z,53.42
2022-07-26T09:51:15.200Z,52.06
2022-07-26T09:52:15.178Z,51.15
2022-07-26T09:53:15.168Z,49.94
2022-07-26T09:54:15.885Z,49.20
2022-07-26T09:55:21.671Z,49.96
2022-07-26T09:56:15.143Z,51.07
2022-07-26T09:57:15.128Z,48.98
2022-07-26T09:58:15.117Z,46.94
2022-07-26T09:59:15.103Z,48.00
2022-07-26T10:00:15.087Z,47.70
2022-07-26T10:01:15.151Z,45.94
2022-07-26T10:02:15.072Z,45.84
2022-07-26T10:03:15.104Z,46.35
2022-07-26T10:04:15.080Z,46.87
2022-07-26T10:05:15.053Z,47.56
2022-07-26T10:06:15.033Z,47.90
2022-07-26T10:07:15.020Z,50.59
2022-07-26T10:08:15.075Z,49.84
2022-07-26T10:09:15.067Z,49.30
2022-07-26T10:10:14.997Z,47.44
2022-07-26T10:11:14.979Z,45.70
2022-07-26T10:12:14.976Z,44.89
2022-07-26T10:13:14.966Z,43.35
2022-07-26T10:14:14.946Z,43.37
2022-07-26T10:15:14.964Z,43.66
2022-07-26T10:16:14.944Z,41.72
2022-07-26T10:17:14.933Z,41.23
2022-07-26T10:18:16.727Z,40.50
2022-07-26T10:19:14.899Z,40.29
2022-07-26T10:20:17.422Z,38.79
2022-07-26T10:21:14.892Z,37.95
2022-07-26T10:22:14.889Z,36.06
2022-07-26T10:23:14.867Z,35.34
2022-07-26T10:24:14.870Z,35.55
2022-07-26T10:25:14.846Z,36.88
2022-07-26T10:26:14.842Z,38.16
2022-07-26T10:27:14.821Z,40.11
2022-07-26T10:28:14.807Z,41.64
2022-07-26T10:29:14.830Z,43.08
2022-07-26T10:30:14.793Z,44.29
2022-07-26T10:31:14.849Z,44.92
2022-07-26T10:32:14.774Z,45.85
2022-07-26T10:33:14.765Z,46.37
2022-07-26T10:34:14.789Z,46.98
2022-07-26T10:35:21.278Z,47.50
2022-07-26T10:36:14.734Z,48.31
2022-07-26T10:37:14.724Z,48.41
2022-07-26T10:38:14.714Z,48.28
2022-07-26T10:39:14.704Z,48.39
2022-07-26T10:40:14.728Z,48.49
2022-07-26T10:41:14.696Z,49.01
2022-07-26T10:42:14.665Z,49.30
2022-07-26T10:43:39.496Z,50.04
2022-07-26T10:44:14.644Z,50.56
2022-07-26T10:45:14.630Z,50.78
2022-07-26T10:46:14.669Z,50.95
2022-07-26T10:47:14.625Z,50.85
2022-07-26T10:48:14.615Z,50.78
2022-07-26T10:49:14.646Z,52.12
2022-07-26T10:50:31.832Z,52.29
2022-07-26T10:51:14.566Z,52.22
2022-07-26T10:52:14.571Z,53.23
2022-07-26T10:53:14.549Z,53.33
2022-07-26T10:54:14.842Z,54.47
2022-07-26T10:55:14.519Z,54.87
2022-07-26T10:56:14.513Z,53.43
2022-07-26T10:57:14.536Z,53.01
2022-07-26T10:58:14.494Z,52.59
2022-07-26T10:59:20.316Z,50.73
2022-07-26T11:00:14.485Z,50.73
2022-07-26T11:01:14.567Z,50.61
2022-07-26T11:02:14.462Z,50.19
2022-07-26T11:03:15.860Z,49.48
2022-07-26T11:04:14.678Z,47.75
2022-07-26T11:05:14.450Z,47.99
2022-07-26T11:06:14.438Z,49.22
2022-07-26T11:07:14.410Z,49.82
2022-07-26T11:08:14.408Z,50.12
2022-07-26T11:09:14.386Z,50.71
2022-07-26T11:10:14.386Z,50.13
2022-07-26T11:11:14.360Z,49.13
2022-07-26T11:12:14.373Z,48.71
2022-07-26T11:13:14.418Z,48.21
2022-07-26T11:14:14.741Z,47.72
2022-07-26T11:15:14.313Z,48.11
2022-07-26T11:16:14.387Z,47.91
2022-07-26T11:17:14.323Z,48.21
2022-07-26T11:18:14.283Z,48.39
2022-07-26T11:19:14.287Z,47.79
2022-07-26T11:20:14.263Z,47.69
2022-07-26T11:21:14.274Z,47.60
2022-07-26T11:22:14.263Z,47.62
2022-07-26T11:23:14.241Z,48.63
2022-07-26T11:24:14.689Z,48.24
2022-07-26T11:25:14.221Z,48.31
2022-07-26T11:26:14.231Z,47.42
2022-07-26T11:27:14.198Z,47.42
2022-07-26T11:28:14.190Z,47.32
2022-07-26T11:29:17.530Z,47.84
2022-07-26T11:30:14.163Z,47.74
2022-07-26T11:31:14.489Z,48.06
2022-07-26T11:32:18.105Z,48.68
2022-07-26T11:33:14.124Z,48.68
2022-07-26T11:34:14.537Z,48.88
2022-07-26T11:35:14.130Z,49.29
2022-07-26T11:36:14.103Z,49.49
2022-07-26T11:37:14.151Z,49.59
2022-07-26T11:38:14.078Z,49.57
2022-07-26T11:39:14.069Z,49.47
2022-07-26T11:40:14.049Z,49.57
2022-07-26T11:41:14.051Z,49.17
2022-07-26T11:42:14.033Z,48.83
2022-07-26T11:43:14.028Z,48.14
2022-07-26T11:44:14.284Z,48.36
2022-07-26T11:45:13.997Z,48.88
2022-07-26T11:46:14.106Z,48.85
2022-07-26T11:47:14.222Z,48.95
2022-07-26T11:48:13.979Z,48.63
2022-07-26T11:49:15.264Z,47.62
2022-07-26T11:50:22.260Z,46.39
2022-07-26T11:51:14.047Z,45.56
2022-07-26T11:52:13.929Z,44.45
2022-07-26T11:53:13.934Z,43.23
2022-07-26T11:54:14.277Z,42.61
2022-07-26T11:55:13.894Z,41.59
2022-07-26T11:56:13.931Z,41.27
2022-07-26T11:57:13.878Z,41.88
2022-07-26T11:58:13.863Z,42.54
2022-07-26T11:59:13.875Z,43.64
2022-07-26T12:00:13.881Z,42.73
2022-07-26T12:01:13.854Z,44.15
2022-07-26T12:02:13.952Z,44.15
2022-07-26T12:03:13.841Z,43.30
2022-07-26T12:04:14.260Z,41.96
2022-07-26T12:05:13.949Z,39.62
2022-07-26T12:06:13.801Z,39.03
2022-07-26T12:07:13.822Z,38.60
2022-07-26T12:08:13.764Z,37.06
2022-07-26T12:09:13.777Z,36.65
2022-07-26T12:10:13.767Z,35.72
2022-07-26T12:11:13.759Z,35.41
2022-07-26T12:12:13.752Z,34.40
2022-07-26T12:13:13.748Z,33.70
2022-07-26T12:14:18.441Z,33.51
2022-07-26T12:15:13.713Z,34.42
2022-07-26T12:16:13.796Z,35.02
2022-07-26T12:17:13.714Z,35.55
2022-07-26T12:18:13.685Z,37.18
2022-07-26T12:19:13.682Z,38.41
2022-07-26T12:20:13.692Z,39.35
2022-07-26T12:21:13.642Z,40.39
2022-07-26T12:22:13.653Z,41.24
2022-07-26T12:23:13.637Z,42.85
2022-07-26T12:24:14.012Z,43.68
2022-07-26T12:25:13.824Z,44.29
2022-07-26T12:26:13.818Z,44.71
2022-07-26T12:27:17.455Z,45.32
2022-07-26T12:28:13.570Z,45.94
2022-07-26T12:29:14.275Z,46.66
2022-07-26T12:30:13.819Z,48.40
2022-07-26T12:31:13.601Z,51.32
2022-07-26T12:32:13.554Z,58.72
2022-07-26T12:33:13.530Z,64.39
2022-07-26T12:34:13.968Z,74.60
2022-07-26T12:35:13.504Z,77.55
2022-07-26T12:36:13.527Z,82.01
2022-07-26T12:37:13.484Z,86.33
2022-07-26T12:38:13.464Z,85.96
2022-07-26T12:39:13.458Z,88.60
2022-07-26T12:40:13.441Z,87.38
2022-07-26T12:41:13.808Z,88.39
2022-07-26T12:42:16.846Z,91.03
2022-07-26T12:43:13.420Z,91.54
2022-07-26T12:44:13.803Z,90.44
2022-07-26T12:45:13.397Z,92.14
2022-07-26T12:46:13.412Z,90.53
2022-07-26T12:47:13.652Z,91.94
2022-07-26T12:48:13.363Z,88.32
2022-07-26T12:49:13.457Z,90.33
2022-07-26T12:50:13.335Z,90.39
2022-07-26T12:51:13.316Z,89.69
2022-07-26T12:52:13.341Z,89.59
2022-07-26T12:53:13.341Z,89.18
2022-07-26T12:54:13.859Z,85.97
2022-07-26T12:55:19.784Z,87.78
2022-07-26T12:56:13.278Z,88.64
2022-07-26T12:57:13.263Z,87.24
2022-07-26T12:58:14.220Z,87.14
2022-07-26T12:59:17.857Z,85.24
2022-07-26T13:00:13.239Z,85.99
2022-07-26T13:01:13.304Z,84.39
2022-07-26T13:02:13.222Z,84.85
2022-07-26T13:03:14.168Z,82.85
2022-07-26T13:04:13.633Z,85.61
2022-07-26T13:05:13.243Z,84.77
2022-07-26T13:06:13.169Z,84.23
2022-07-26T13:07:13.148Z,82.19
2022-07-26T13:08:13.140Z,84.61
2022-07-26T13:09:13.141Z,82.17
2022-07-26T13:11:13.109Z,80.00
2022-07-26T13:12:13.086Z,76.83
2022-07-26T13:13:13.089Z,79.79
2022-07-26T13:14:13.539Z,80.44
2022-07-26T13:15:13.055Z,77.48
2022-07-26T13:16:13.043Z,73.03
2022-07-26T13:17:13.108Z,74.29
2022-07-26T13:18:13.027Z,68.30
2022-07-26T13:19:13.022Z,69.16
2022-07-26T13:20:13.022Z,70.34
2022-07-26T13:21:12.998Z,68.01
2022-07-26T13:22:12.992Z,60.96
2022-07-26T13:23:15.841Z,63.65
2022-07-26T13:24:13.358Z,64.78
2022-07-26T13:25:12.948Z,65.27
2022-07-26T13:26:12.962Z,61.83
2022-07-26T13:27:12.929Z,64.25
2022-07-26T13:28:12.920Z,65.41
2022-07-26T13:29:12.923Z,54.87
2022-07-26T13:30:12.933Z,55.26
2022-07-26T13:31:13.047Z,54.16
2022-07-26T13:32:12.905Z,50.98
2022-07-26T13:33:12.884Z,53.78
2022-07-26T13:34:13.442Z,51.59
2022-07-26T13:35:12.845Z,50.27
2022-07-26T13:36:12.875Z,48.13
2022-07-26T13:37:12.837Z,50.61
2022-07-26T13:38:12.827Z,47.66
2022-07-26T13:39:12.809Z,45.83
2022-07-26T13:40:12.810Z,44.62
2022-07-26T13:41:12.871Z,44.94
2022-07-26T13:42:12.825Z,45.24
2022-07-26T13:43:12.762Z,43.92
2022-07-26T13:44:13.418Z,42.62
2022-07-26T13:45:12.753Z,42.50
2022-07-26T13:46:12.835Z,42.88
2022-07-26T13:47:12.725Z,41.88
2022-07-26T13:48:12.724Z,39.90
2022-07-26T13:49:12.787Z,41.07
2022-07-26T13:50:12.722Z,42.32
2022-07-26T13:51:12.695Z,41.31
2022-07-26T13:52:16.482Z,39.70
2022-07-26T13:53:12.675Z,38.20
2022-07-26T13:54:13.288Z,37.70
2022-07-26T13:55:12.661Z,37.91
2022-07-26T13:56:12.680Z,35.98
2022-07-26T13:57:12.646Z,36.37
2022-07-26T13:58:12.633Z,35.20
2022-07-26T13:59:12.631Z,34.71
2022-07-26T14:00:12.618Z,35.88
2022-07-26T14:01:12.695Z,35.75
2022-07-26T14:02:12.726Z,35.63
2022-07-26T14:03:12.640Z,35.25
2022-07-26T14:04:13.244Z,35.21
2022-07-26T14:05:19.084Z,35.39
2022-07-26T14:06:12.569Z,34.47
2022-07-26T14:07:12.545Z,34.66
2022-07-26T14:08:12.562Z,34.55
2022-07-26T14:09:12.530Z,34.43
2022-07-26T14:10:12.513Z,33.56
2022-07-26T14:11:12.530Z,33.06
2022-07-26T14:12:12.539Z,32.47
2022-07-26T14:13:12.526Z,33.53
2022-07-26T14:14:12.949Z,33.22
2022-07-26T14:15:18.004Z,32.23
2022-07-26T14:16:12.501Z,31.82
2022-07-26T14:17:12.453Z,31.15
2022-07-26T14:18:12.493Z,31.34
2022-07-26T14:19:12.471Z,30.66
2022-07-26T14:20:12.444Z,30.94
2022-07-26T14:21:12.431Z,30.35
2022-07-26T14:22:12.458Z,30.45
2022-07-26T14:23:12.409Z,30.65
2022-07-26T14:24:12.702Z,31.04
2022-07-26T14:25:12.399Z,30.54
2022-07-26T14:26:12.381Z,30.34
2022-07-26T14:27:12.391Z,30.15
2022-07-26T14:28:12.350Z,29.85
2022-07-26T14:29:12.387Z,30.35
2022-07-26T14:30:12.352Z,30.97
2022-07-26T14:31:12.411Z,31.48
2022-07-26T14:32:12.404Z,32.39
2022-07-26T14:33:12.333Z,33.26
2022-07-26T14:34:12.651Z,31.76
2022-07-26T14:35:12.302Z,31.66
2022-07-26T14:36:12.308Z,31.48
2022-07-26T14:37:41.006Z,31.77
2022-07-26T14:38:12.279Z,31.68
2022-07-26T14:39:12.291Z,32.45
2022-07-26T14:40:12.260Z,32.26
2022-07-26T14:41:12.242Z,31.84
2022-07-26T14:42:12.224Z,31.04
2022-07-26T14:43:12.285Z,29.95
2022-07-26T14:44:12.647Z,30.34
2022-07-26T14:45:12.199Z,31.07
2022-07-26T14:46:12.322Z,31.26
2022-07-26T14:47:12.195Z,30.76
2022-07-26T14:48:12.188Z,31.16
2022-07-26T14:49:12.206Z,31.24
2022-07-26T14:50:12.183Z,30.07
2022-07-26T14:51:12.147Z,30.45
2022-07-26T14:52:12.141Z,30.65
2022-07-26T14:53:12.205Z,30.58
2022-07-26T14:54:12.415Z,31.79
2022-07-26T14:55:24.674Z,33.01
2022-07-26T14:56:12.154Z,33.82
2022-07-26T14:57:12.100Z,34.81
2022-07-26T14:58:12.115Z,34.63
2022-07-26T14:59:12.075Z,35.36
2022-07-26T15:00:12.109Z,36.38
2022-07-26T15:01:12.117Z,36.57
2022-07-26T15:02:12.137Z,36.07
2022-07-26T15:03:12.029Z,36.69
2022-07-26T15:04:12.407Z,37.02
2022-07-26T15:05:12.028Z,37.43
2022-07-26T15:06:12.039Z,36.38
2022-07-26T15:07:12.013Z,35.99
2022-07-26T15:08:11.998Z,36.80
2022-07-26T15:09:11.982Z,37.63
2022-07-26T15:10:11.984Z,38.23
2022-07-26T15:11:11.981Z,37.61
2022-07-26T15:12:11.979Z,35.75
2022-07-26T15:13:11.965Z,34.55
2022-07-26T15:14:12.415Z,34.36
2022-07-26T15:15:18.489Z,34.44
2022-07-26T15:16:12.010Z,34.32
2022-07-26T15:17:11.907Z,33.01
2022-07-26T15:18:11.914Z,32.40
2022-07-26T15:19:11.896Z,32.91
2022-07-26T15:20:11.890Z,34.21
2022-07-26T15:21:11.857Z,35.04
2022-07-26T15:22:11.858Z,36.38
2022-07-26T15:23:11.925Z,38.51
2022-07-26T15:24:12.265Z,40.06
2022-07-26T15:25:11.831Z,41.17
2022-07-26T15:26:11.830Z,42.30
2022-07-26T15:27:11.797Z,43.30
2022-07-26T15:28:11.786Z,43.62
2022-07-26T15:29:11.797Z,44.74
2022-07-26T15:30:14.745Z,45.26
2022-07-26T15:31:11.787Z,45.95
2022-07-26T15:32:11.885Z,46.17
2022-07-26T15:33:11.735Z,46.69
2022-07-26T15:34:12.147Z,47.28
2022-07-26T15:35:18.254Z,47.60
2022-07-26T15:36:11.697Z,48.19
2022-07-26T15:37:11.727Z,48.39
2022-07-26T15:38:11.689Z,48.61
2022-07-26T15:39:17.054Z,49.32
2022-07-26T15:40:11.699Z,50.13
2022-07-26T15:41:11.670Z,50.85
2022-07-26T15:42:11.668Z,52.46
2022-07-26T15:43:11.647Z,51.57
2022-07-26T15:44:12.502Z,51.79
2022-07-26T15:45:11.604Z,52.02
2022-07-26T15:46:11.760Z,52.41
2022-07-26T15:47:12.016Z,53.73
2022-07-26T15:48:17.236Z,53.53
2022-07-26T15:49:11.625Z,54.72
2022-07-26T15:50:11.577Z,56.13
2022-07-26T15:51:11.550Z,55.34
2022-07-26T15:52:11.557Z,55.94
2022-07-26T15:53:28.793Z,55.64
2022-07-26T15:54:11.972Z,54.32
2022-07-26T15:55:11.525Z,53.92
2022-07-26T15:56:11.484Z,54.02
2022-07-26T15:57:11.486Z,54.22
2022-07-26T15:58:11.482Z,53.83
2022-07-26T15:59:11.479Z,53.53
2022-07-26T16:00:12.195Z,53.43
2022-07-26T16:01:11.516Z,53.03
2022-07-26T16:02:11.489Z,52.94
2022-07-26T16:03:11.416Z,52.41
2022-07-26T16:04:11.901Z,52.12
2022-07-26T16:05:11.386Z,52.12
2022-07-26T16:06:11.404Z,51.89
2022-07-26T16:07:11.444Z,51.37
2022-07-26T16:08:11.415Z,50.13
2022-07-26T16:09:17.127Z,49.20
2022-07-26T16:10:11.384Z,48.78
2022-07-26T16:11:11.339Z,47.23
2022-07-26T16:12:11.339Z,45.78
2022-07-26T16:13:11.322Z,44.76
2022-07-26T16:14:11.336Z,44.36
2022-07-26T16:15:11.344Z,43.73
2022-07-26T16:16:11.409Z,43.02
2022-07-26T16:17:11.270Z,42.19
2022-07-26T16:18:11.268Z,42.10
2022-07-26T16:19:11.655Z,41.78
2022-07-26T16:20:11.259Z,41.49
2022-07-26T16:21:11.237Z,41.51
2022-07-26T16:22:11.228Z,41.29
2022-07-26T16:23:11.216Z,41.11
2022-07-26T16:24:11.212Z,41.19
2022-07-26T16:25:11.245Z,40.98
2022-07-26T16:26:11.191Z,40.68
2022-07-26T16:27:11.170Z,41.49
2022-07-26T16:28:11.167Z,40.76
2022-07-26T16:29:11.552Z,40.06
2022-07-26T16:30:11.157Z,39.76
2022-07-26T16:31:11.175Z,40.06
2022-07-26T16:32:11.225Z,39.86
2022-07-26T16:33:11.128Z,39.86
2022-07-26T16:34:11.119Z,39.88
2022-07-26T16:35:11.086Z,39.86
2022-07-26T16:36:11.102Z,39.54
2022-07-26T16:37:11.077Z,39.25
2022-07-26T16:38:11.080Z,39.37
2022-07-26T16:39:11.465Z,39.27
2022-07-26T16:40:11.052Z,39.56
2022-07-26T16:41:11.035Z,39.56
2022-07-26T16:42:11.022Z,40.00
2022-07-26T16:43:11.986Z,40.72
2022-07-26T16:44:11.019Z,41.03
2022-07-26T16:45:10.982Z,41.14
2022-07-26T16:46:11.046Z,41.03
2022-07-26T16:47:10.998Z,40.41
2022-07-26T16:48:10.993Z,39.92
2022-07-26T16:49:11.325Z,39.92
2022-07-26T16:50:10.943Z,39.74
2022-07-26T16:51:10.933Z,40.25
2022-07-26T16:52:10.916Z,41.06
2022-07-26T16:53:13.328Z,40.76
2022-07-26T16:54:10.925Z,41.08
2022-07-26T16:55:10.895Z,40.88
2022-07-26T16:56:10.929Z,41.29
2022-07-26T16:57:10.875Z,42.32
2022-07-26T16:58:10.864Z,43.76
2022-07-26T16:59:10.923Z,44.37
2022-07-26T17:00:10.847Z,45.01
2022-07-26T17:01:10.860Z,45.62
2022-07-26T17:02:10.870Z,46.66
2022-07-26T17:03:10.817Z,47.56
2022-07-26T17:04:10.798Z,47.99
2022-07-26T17:05:17.339Z,48.80
2022-07-26T17:06:10.776Z,49.32
2022-07-26T17:07:26.520Z,49.74
2022-07-26T17:08:10.787Z,50.23
2022-07-26T17:09:15.083Z,50.43
2022-07-26T17:10:10.724Z,50.53
2022-07-26T17:11:10.725Z,50.85
2022-07-26T17:12:10.712Z,51.05
2022-07-26T17:13:10.700Z,51.25
2022-07-26T17:14:13.259Z,51.15
2022-07-26T17:15:10.677Z,50.95
2022-07-26T17:16:10.727Z,51.47
2022-07-26T17:17:10.664Z,52.00
2022-07-26T17:18:10.632Z,52.09
2022-07-26T17:19:10.964Z,52.29
2022-07-26T17:20:10.643Z,52.59
2022-07-26T17:21:10.613Z,52.79
2022-07-26T17:22:10.607Z,52.79
2022-07-26T17:23:10.597Z,53.21
2022-07-26T17:24:10.582Z,53.41
2022-07-26T17:25:10.572Z,53.93
2022-07-26T17:26:10.556Z,54.23
2022-07-26T17:27:10.547Z,54.13
2022-07-26T17:28:10.535Z,54.33
2022-07-26T17:29:10.815Z,54.13
2022-07-26T17:30:10.521Z,54.13
2022-07-26T17:31:10.504Z,54.25
2022-07-26T17:32:10.494Z,54.55
2022-07-26T17:33:10.561Z,54.55
2022-07-26T17:34:10.480Z,54.65
2022-07-26T17:35:16.979Z,54.75
2022-07-26T17:36:10.454Z,54.85
2022-07-26T17:37:10.626Z,54.75
2022-07-26T17:38:10.429Z,54.72
2022-07-26T17:39:14.847Z,54.72
2022-07-26T17:40:10.418Z,54.72